Estación Meteorológica Peña el Pijo (Robertgarden) [ 09/23/18 02:57:29 CEST ]

Fecha Hora Presion(HPa) Temp (°C) Humedad % Rocio (°C) Viento ( m/s) Direccion Lluvia 1Hora(mm) Lluvia 24H(mm) LLuvia Total(mm)
2018-Jul-22 01:01:34 1009.100 15.4 51 5.3         269.36
2018-Jul-22 02:01:30 1009.000 16.2 48 5.1         269.36
2018-Jul-22 03:01:59 1009.000 14.0 53 4.6         269.36
2018-Jul-22 04:01:39 1008.600 12.5 55 3.6         269.36
2018-Jul-22 05:01:32 1008.700 10.9 60 3.4         269.36
2018-Jul-22 06:01:31 1008.300 10.6 63 3.8         269.36
2018-Jul-22 07:01:34 1008.600 10.5 63 3.6         269.36
2018-Jul-22 08:01:38 1008.800 11.6 66 5.4         269.36
2018-Jul-22 09:01:38 1009.200 18.7 48 7.4         269.36
2018-Jul-22 10:01:44 1008.800 24.1 42 10.4         269.36
2018-Jul-22 11:01:47 1008.800 27.7 34 10.3         269.36
2018-Jul-22 12:01:54 1008.600 31.8 29 11.5         269.36
2018-Jul-22 13:01:58 1008.400 32.5 30 12.8         269.36
2018-Jul-22 14:01:50 1008.300 32.4 29 12.0         269.36
2018-Jul-22 15:01:48 1008.100 34.6 26 12.1         269.36
2018-Jul-22 16:01:42 1008.200 36.1 15 4.7 2.0 NNW     269.36
2018-Jul-22 17:01:49 1007.900 36.7 25 13.2         269.36
2018-Jul-22 18:01:38 1008.200 34.1 31 14.5         269.36
2018-Jul-22 19:01:54 1008.300 30.0 41 15.3         269.36
2018-Jul-22 20:01:42 1008.800 27.4 49 15.7 0.5 SSW     269.36
2018-Jul-22 21:01:52 1009.300 24.9 56 15.5 1.3 N     269.36
2018-Jul-22 22:01:47 1009.800 23.0 62 15.3         269.36
2018-Jul-22 23:01:44 1010.900 21.4 67 15.0         269.36

Temperatura Máxima:36°    Temperatura Mínima:10°
Presión Máxima:1010.900 Hpa    Presión Mínima:1007.900 Hpa


Volver